Fairfield, Florida
Current Conditions -  °F | °C
As of 5:50 PM on Tuesday 21 Oct 2014 (Local Time) from KOCF Reporting Station
Clear Clear  
Wind Chill: 79°   Ceiling: Unl
Heat Index: 80°   Visibility: 10mi
Dew Point: 63°   Wind: 0mph
Humidity: 57%   Direction: NA
Pressure: 29.92"   Gusts: NA
Location:  29.37°N, 82.25°W
Report Text: KOCF 212150Z 00000KT 10SM CLR 26/17 A2992
Loading
Personal Weather Stations






























Interactive Weather Map
Tropical Storm Tracking
New forecast layout! Learn more

10-Day Weather Forecast

Advertisements
Track Severe Weather on mobile